Terminal Aerodrome Forecast
Issued by NWS

Home | Current Version | Previous Version | Graphics & Text | Print | Product List | Glossary On
Versions: 1 2 3 4 5 6 7 8 9 10 11 12 13 14 15 16 17
000
FTUS43 KUNR 291100
TAFGCC
TAF
KGCC 291120Z 2912/3012 34015G25KT P6SM SCT050 BKN100
     FM291400 35010KT P6SM SCT100
     FM292200 05008KT P6SM SCT250
     FM300300 15010KT P6SM SKC=

USA.gov is the U.S. government's official web portal to all federal, state and local government web resources and services.